sensor_id;sensor_type;location;lat;lon;timestamp;P1;durP1;ratioP1;P2;durP2;ratioP2
76417;SDS011;65250;47.602;19.002;2023-10-08T00:01:16;3.47;;;1.58;;
76417;SDS011;65250;47.602;19.002;2023-10-08T00:03:44;3.93;;;1.80;;
76417;SDS011;65250;47.602;19.002;2023-10-08T00:06:25;5.25;;;2.13;;
76417;SDS011;65250;47.602;19.002;2023-10-08T00:08:54;5.32;;;1.80;;
76417;SDS011;65250;47.602;19.002;2023-10-08T00:11:26;4.03;;;1.67;;
76417;SDS011;65250;47.602;19.002;2023-10-08T00:13:55;3.72;;;1.67;;
76417;SDS011;65250;47.602;19.002;2023-10-08T00:16:23;3.60;;;1.27;;
76417;SDS011;65250;47.602;19.002;2023-10-08T00:18:50;8.07;;;1.52;;
76417;SDS011;65250;47.602;19.002;2023-10-08T00:21:19;5.38;;;1.85;;
76417;SDS011;65250;47.602;19.002;2023-10-08T00:23:54;4.50;;;1.90;;
76417;SDS011;65250;47.602;19.002;2023-10-08T00:26:26;3.00;;;1.42;;
76417;SDS011;65250;47.602;19.002;2023-10-08T00:28:55;4.67;;;1.60;;
76417;SDS011;65250;47.602;19.002;2023-10-08T00:31:29;2.80;;;1.40;;
76417;SDS011;65250;47.602;19.002;2023-10-08T00:34:04;3.67;;;1.63;;
76417;SDS011;65250;47.602;19.002;2023-10-08T00:36:41;4.20;;;1.45;;
76417;SDS011;65250;47.602;19.002;2023-10-08T00:39:09;3.55;;;1.50;;
76417;SDS011;65250;47.602;19.002;2023-10-08T00:41:41;4.20;;;1.50;;
76417;SDS011;65250;47.602;19.002;2023-10-08T00:44:10;3.17;;;1.50;;
76417;SDS011;65250;47.602;19.002;2023-10-08T00:46:43;4.15;;;1.30;;
76417;SDS011;65250;47.602;19.002;2023-10-08T00:49:16;5.95;;;1.30;;
76417;SDS011;65250;47.602;19.002;2023-10-08T00:51:56;4.90;;;1.50;;
76417;SDS011;65250;47.602;19.002;2023-10-08T00:54:46;4.70;;;1.37;;
76417;SDS011;65250;47.602;19.002;2023-10-08T00:57:34;4.10;;;1.55;;
76417;SDS011;65250;47.602;19.002;2023-10-08T01:00:05;4.18;;;1.75;;
76417;SDS011;65250;47.602;19.002;2023-10-08T01:02:33;4.35;;;1.45;;
76417;SDS011;65250;47.602;19.002;2023-10-08T01:05:12;5.78;;;1.35;;
76417;SDS011;65250;47.602;19.002;2023-10-08T01:07:41;3.63;;;1.40;;
76417;SDS011;65250;47.602;19.002;2023-10-08T01:10:17;5.03;;;1.48;;
76417;SDS011;65250;47.602;19.002;2023-10-08T01:12:47;4.00;;;1.33;;
76417;SDS011;65250;47.602;19.002;2023-10-08T01:15:38;4.70;;;1.30;;
76417;SDS011;65250;47.602;19.002;2023-10-08T01:18:08;4.47;;;1.60;;
76417;SDS011;65250;47.602;19.002;2023-10-08T01:20:42;3.20;;;1.90;;
76417;SDS011;65250;47.602;19.002;2023-10-08T01:23:15;3.90;;;1.33;;
76417;SDS011;65250;47.602;19.002;2023-10-08T01:25:48;3.97;;;1.52;;
76417;SDS011;65250;47.602;19.002;2023-10-08T01:28:19;3.67;;;1.65;;
76417;SDS011;65250;47.602;19.002;2023-10-08T01:31:04;3.75;;;1.45;;
76417;SDS011;65250;47.602;19.002;2023-10-08T01:33:31;3.70;;;1.40;;
76417;SDS011;65250;47.602;19.002;2023-10-08T01:36:03;4.53;;;1.50;;
76417;SDS011;65250;47.602;19.002;2023-10-08T01:38:31;2.75;;;1.33;;
76417;SDS011;65250;47.602;19.002;2023-10-08T01:41:01;4.68;;;1.40;;
76417;SDS011;65250;47.602;19.002;2023-10-08T01:43:36;3.47;;;1.30;;
76417;SDS011;65250;47.602;19.002;2023-10-08T01:46:05;5.57;;;1.87;;
76417;SDS011;65250;47.602;19.002;2023-10-08T01:48:38;3.50;;;1.50;;
76417;SDS011;65250;47.602;19.002;2023-10-08T01:51:06;6.03;;;1.30;;
76417;SDS011;65250;47.602;19.002;2023-10-08T01:53:36;3.50;;;1.27;;
76417;SDS011;65250;47.602;19.002;2023-10-08T01:56:04;10.93;;;1.95;;
76417;SDS011;65250;47.602;19.002;2023-10-08T01:58:31;4.73;;;2.10;;
76417;SDS011;65250;47.602;19.002;2023-10-08T02:01:00;5.93;;;1.40;;
76417;SDS011;65250;47.602;19.002;2023-10-08T02:03:27;4.28;;;1.50;;
76417;SDS011;65250;47.602;19.002;2023-10-08T02:05:54;3.90;;;1.67;;
76417;SDS011;65250;47.602;19.002;2023-10-08T02:08:26;2.85;;;1.10;;
76417;SDS011;65250;47.602;19.002;2023-10-08T02:10:53;3.60;;;1.47;;
76417;SDS011;65250;47.602;19.002;2023-10-08T02:13:20;4.00;;;1.38;;
76417;SDS011;65250;47.602;19.002;2023-10-08T02:15:50;6.55;;;1.52;;
76417;SDS011;65250;47.602;19.002;2023-10-08T02:18:20;6.05;;;1.38;;
76417;SDS011;65250;47.602;19.002;2023-10-08T02:20:52;4.13;;;1.85;;
76417;SDS011;65250;47.602;19.002;2023-10-08T02:23:19;3.87;;;1.47;;
76417;SDS011;65250;47.602;19.002;2023-10-08T02:25:46;3.08;;;1.35;;
76417;SDS011;65250;47.602;19.002;2023-10-08T02:28:15;5.40;;;1.50;;
76417;SDS011;65250;47.602;19.002;2023-10-08T02:30:42;6.93;;;1.90;;
76417;SDS011;65250;47.602;19.002;2023-10-08T02:33:10;5.47;;;1.40;;
76417;SDS011;65250;47.602;19.002;2023-10-08T02:35:43;3.53;;;1.63;;
76417;SDS011;65250;47.602;19.002;2023-10-08T02:38:12;6.20;;;1.60;;
76417;SDS011;65250;47.602;19.002;2023-10-08T02:40:43;5.78;;;1.63;;
76417;SDS011;65250;47.602;19.002;2023-10-08T02:43:15;3.05;;;1.65;;
76417;SDS011;65250;47.602;19.002;2023-10-08T02:45:42;3.70;;;1.20;;
76417;SDS011;65250;47.602;19.002;2023-10-08T02:48:14;9.00;;;1.70;;
76417;SDS011;65250;47.602;19.002;2023-10-08T02:50:43;4.20;;;1.20;;
76417;SDS011;65250;47.602;19.002;2023-10-08T02:53:13;5.05;;;1.60;;
76417;SDS011;65250;47.602;19.002;2023-10-08T02:55:46;5.32;;;1.60;;
76417;SDS011;65250;47.602;19.002;2023-10-08T02:58:14;4.82;;;1.77;;
76417;SDS011;65250;47.602;19.002;2023-10-08T03:00:42;6.10;;;1.40;;
76417;SDS011;65250;47.602;19.002;2023-10-08T03:03:10;5.38;;;1.45;;
76417;SDS011;65250;47.602;19.002;2023-10-08T03:05:44;5.30;;;1.45;;
76417;SDS011;65250;47.602;19.002;2023-10-08T03:08:13;4.32;;;1.52;;
76417;SDS011;65250;47.602;19.002;2023-10-08T03:10:46;5.05;;;1.52;;
76417;SDS011;65250;47.602;19.002;2023-10-08T03:13:15;4.90;;;1.80;;
76417;SDS011;65250;47.602;19.002;2023-10-08T03:15:43;5.00;;;1.35;;
76417;SDS011;65250;47.602;19.002;2023-10-08T03:18:24;2.70;;;1.50;;
76417;SDS011;65250;47.602;19.002;2023-10-08T03:20:51;3.78;;;1.00;;
76417;SDS011;65250;47.602;19.002;2023-10-08T03:23:19;4.78;;;1.50;;
76417;SDS011;65250;47.602;19.002;2023-10-08T03:28:25;4.88;;;1.40;;
76417;SDS011;65250;47.602;19.002;2023-10-08T03:30:54;4.00;;;1.33;;
76417;SDS011;65250;47.602;19.002;2023-10-08T03:33:33;3.53;;;1.63;;
76417;SDS011;65250;47.602;19.002;2023-10-08T03:36:01;6.68;;;1.23;;
76417;SDS011;65250;47.602;19.002;2023-10-08T03:38:47;3.40;;;1.00;;
76417;SDS011;65250;47.602;19.002;2023-10-08T03:41:22;5.00;;;1.17;;
76417;SDS011;65250;47.602;19.002;2023-10-08T03:43:55;7.18;;;1.65;;
76417;SDS011;65250;47.602;19.002;2023-10-08T03:46:32;5.45;;;1.50;;
76417;SDS011;65250;47.602;19.002;2023-10-08T03:49:06;3.05;;;1.38;;
76417;SDS011;65250;47.602;19.002;2023-10-08T03:51:41;4.97;;;1.57;;
76417;SDS011;65250;47.602;19.002;2023-10-08T03:54:09;10.00;;;1.70;;
76417;SDS011;65250;47.602;19.002;2023-10-08T03:56:36;3.25;;;1.45;;
76417;SDS011;65250;47.602;19.002;2023-10-08T03:59:03;6.90;;;1.80;;
76417;SDS011;65250;47.602;19.002;2023-10-08T04:01:43;3.13;;;1.23;;
76417;SDS011;65250;47.602;19.002;2023-10-08T04:04:10;4.10;;;1.40;;
76417;SDS011;65250;47.602;19.002;2023-10-08T04:06:41;3.65;;;1.35;;
76417;SDS011;65250;47.602;19.002;2023-10-08T04:09:16;5.28;;;2.20;;
76417;SDS011;65250;47.602;19.002;2023-10-08T04:11:45;4.72;;;1.60;;
76417;SDS011;65250;47.602;19.002;2023-10-08T04:14:15;3.63;;;1.15;;
76417;SDS011;65250;47.602;19.002;2023-10-08T04:16:45;5.33;;;1.13;;
76417;SDS011;65250;47.602;19.002;2023-10-08T04:19:12;3.13;;;1.40;;
76417;SDS011;65250;47.602;19.002;2023-10-08T04:21:44;6.43;;;1.40;;
76417;SDS011;65250;47.602;19.002;2023-10-08T04:24:12;4.88;;;1.50;;
76417;SDS011;65250;47.602;19.002;2023-10-08T04:26:41;3.47;;;1.58;;
76417;SDS011;65250;47.602;19.002;2023-10-08T04:29:09;5.30;;;1.30;;
76417;SDS011;65250;47.602;19.002;2023-10-08T04:31:36;2.85;;;1.42;;
76417;SDS011;65250;47.602;19.002;2023-10-08T04:34:04;6.38;;;1.30;;
76417;SDS011;65250;47.602;19.002;2023-10-08T04:36:48;4.55;;;1.40;;
76417;SDS011;65250;47.602;19.002;2023-10-08T04:39:27;4.05;;;1.33;;
76417;SDS011;65250;47.602;19.002;2023-10-08T04:42:02;6.33;;;1.47;;
76417;SDS011;65250;47.602;19.002;2023-10-08T04:44:37;5.53;;;1.65;;
76417;SDS011;65250;47.602;19.002;2023-10-08T04:47:07;5.05;;;1.13;;
76417;SDS011;65250;47.602;19.002;2023-10-08T04:49:55;4.85;;;1.40;;
76417;SDS011;65250;47.602;19.002;2023-10-08T04:52:23;5.22;;;1.10;;
76417;SDS011;65250;47.602;19.002;2023-10-08T04:54:51;3.13;;;1.33;;
76417;SDS011;65250;47.602;19.002;2023-10-08T04:57:21;3.08;;;1.40;;
76417;SDS011;65250;47.602;19.002;2023-10-08T04:59:52;3.53;;;1.25;;
76417;SDS011;65250;47.602;19.002;2023-10-08T05:02:24;5.72;;;1.27;;
76417;SDS011;65250;47.602;19.002;2023-10-08T05:05:14;4.93;;;1.38;;
76417;SDS011;65250;47.602;19.002;2023-10-08T05:07:44;5.90;;;1.50;;
76417;SDS011;65250;47.602;19.002;2023-10-08T05:10:11;6.13;;;1.90;;
76417;SDS011;65250;47.602;19.002;2023-10-08T05:12:52;5.45;;;1.80;;
76417;SDS011;65250;47.602;19.002;2023-10-08T05:15:32;6.22;;;2.00;;
76417;SDS011;65250;47.602;19.002;2023-10-08T05:18:00;4.22;;;1.35;;
76417;SDS011;65250;47.602;19.002;2023-10-08T05:20:46;4.40;;;1.43;;
76417;SDS011;65250;47.602;19.002;2023-10-08T05:23:16;3.40;;;1.50;;
76417;SDS011;65250;47.602;19.002;2023-10-08T05:25:51;5.28;;;1.63;;
76417;SDS011;65250;47.602;19.002;2023-10-08T05:28:25;3.28;;;1.60;;
76417;SDS011;65250;47.602;19.002;2023-10-08T05:30:52;5.55;;;1.63;;
76417;SDS011;65250;47.602;19.002;2023-10-08T05:33:38;6.00;;;1.80;;
76417;SDS011;65250;47.602;19.002;2023-10-08T05:36:31;4.72;;;1.27;;
76417;SDS011;65250;47.602;19.002;2023-10-08T05:39:16;8.02;;;1.60;;
76417;SDS011;65250;47.602;19.002;2023-10-08T05:42:07;6.63;;;1.63;;
76417;SDS011;65250;47.602;19.002;2023-10-08T05:44:46;3.97;;;1.63;;
76417;SDS011;65250;47.602;19.002;2023-10-08T05:47:33;3.27;;;1.23;;
76417;SDS011;65250;47.602;19.002;2023-10-08T05:50:01;4.22;;;1.73;;
76417;SDS011;65250;47.602;19.002;2023-10-08T05:52:45;4.07;;;1.35;;
76417;SDS011;65250;47.602;19.002;2023-10-08T05:55:24;3.53;;;1.30;;
76417;SDS011;65250;47.602;19.002;2023-10-08T05:58:03;12.52;;;2.20;;
76417;SDS011;65250;47.602;19.002;2023-10-08T06:00:41;6.60;;;1.70;;
76417;SDS011;65250;47.602;19.002;2023-10-08T06:03:32;4.53;;;1.13;;
76417;SDS011;65250;47.602;19.002;2023-10-08T06:06:09;6.40;;;1.80;;
76417;SDS011;65250;47.602;19.002;2023-10-08T06:08:39;6.15;;;1.65;;
76417;SDS011;65250;47.602;19.002;2023-10-08T06:11:18;4.60;;;1.85;;
76417;SDS011;65250;47.602;19.002;2023-10-08T06:14:11;4.73;;;1.60;;
76417;SDS011;65250;47.602;19.002;2023-10-08T06:16:57;7.57;;;1.88;;
76417;SDS011;65250;47.602;19.002;2023-10-08T06:19:43;6.93;;;1.80;;
76417;SDS011;65250;47.602;19.002;2023-10-08T06:22:09;4.45;;;1.73;;
76417;SDS011;65250;47.602;19.002;2023-10-08T06:24:36;3.47;;;1.30;;
76417;SDS011;65250;47.602;19.002;2023-10-08T06:27:06;5.43;;;1.90;;
76417;SDS011;65250;47.602;19.002;2023-10-08T06:29:33;6.47;;;2.00;;
76417;SDS011;65250;47.602;19.002;2023-10-08T06:32:00;5.43;;;1.50;;
76417;SDS011;65250;47.602;19.002;2023-10-08T06:34:31;6.05;;;1.88;;
76417;SDS011;65250;47.602;19.002;2023-10-08T06:36:58;5.03;;;1.77;;
76417;SDS011;65250;47.602;19.002;2023-10-08T06:39:26;6.30;;;1.30;;
76417;SDS011;65250;47.602;19.002;2023-10-08T06:42:00;6.63;;;1.73;;
76417;SDS011;65250;47.602;19.002;2023-10-08T06:44:27;4.35;;;1.88;;
76417;SDS011;65250;47.602;19.002;2023-10-08T06:46:54;9.20;;;1.98;;
76417;SDS011;65250;47.602;19.002;2023-10-08T06:49:23;3.45;;;1.40;;
76417;SDS011;65250;47.602;19.002;2023-10-08T06:51:51;5.37;;;1.60;;
76417;SDS011;65250;47.602;19.002;2023-10-08T06:54:18;7.15;;;1.90;;
76417;SDS011;65250;47.602;19.002;2023-10-08T06:56:45;4.40;;;1.70;;
76417;SDS011;65250;47.602;19.002;2023-10-08T06:59:13;5.32;;;1.52;;
76417;SDS011;65250;47.602;19.002;2023-10-08T07:01:41;6.38;;;1.80;;
76417;SDS011;65250;47.602;19.002;2023-10-08T07:04:13;3.40;;;1.50;;
76417;SDS011;65250;47.602;19.002;2023-10-08T07:06:40;8.27;;;1.77;;
76417;SDS011;65250;47.602;19.002;2023-10-08T07:09:10;3.80;;;1.50;;
76417;SDS011;65250;47.602;19.002;2023-10-08T07:11:56;5.30;;;1.55;;
76417;SDS011;65250;47.602;19.002;2023-10-08T07:14:24;3.92;;;2.10;;
76417;SDS011;65250;47.602;19.002;2023-10-08T07:16:56;3.37;;;1.47;;
76417;SDS011;65250;47.602;19.002;2023-10-08T07:19:28;4.82;;;1.92;;
76417;SDS011;65250;47.602;19.002;2023-10-08T07:22:08;5.50;;;2.03;;
76417;SDS011;65250;47.602;19.002;2023-10-08T07:24:48;5.10;;;2.00;;
76417;SDS011;65250;47.602;19.002;2023-10-08T07:27:18;7.80;;;2.17;;
76417;SDS011;65250;47.602;19.002;2023-10-08T07:29:48;4.73;;;1.60;;
76417;SDS011;65250;47.602;19.002;2023-10-08T07:32:16;3.72;;;1.90;;
76417;SDS011;65250;47.602;19.002;2023-10-08T07:34:45;5.30;;;1.90;;
76417;SDS011;65250;47.602;19.002;2023-10-08T07:37:12;4.05;;;1.35;;
76417;SDS011;65250;47.602;19.002;2023-10-08T07:39:40;5.97;;;2.15;;
76417;SDS011;65250;47.602;19.002;2023-10-08T07:42:13;4.17;;;1.83;;
76417;SDS011;65250;47.602;19.002;2023-10-08T07:44:41;7.55;;;2.00;;
76417;SDS011;65250;47.602;19.002;2023-10-08T07:47:08;11.45;;;2.53;;
76417;SDS011;65250;47.602;19.002;2023-10-08T07:49:38;7.70;;;2.20;;
76417;SDS011;65250;47.602;19.002;2023-10-08T07:52:05;6.60;;;2.45;;
76417;SDS011;65250;47.602;19.002;2023-10-08T07:54:32;4.30;;;1.90;;
76417;SDS011;65250;47.602;19.002;2023-10-08T07:57:01;6.75;;;2.20;;
76417;SDS011;65250;47.602;19.002;2023-10-08T07:59:40;3.47;;;2.13;;
76417;SDS011;65250;47.602;19.002;2023-10-08T08:02:15;9.13;;;2.42;;
76417;SDS011;65250;47.602;19.002;2023-10-08T08:04:44;5.55;;;2.20;;
76417;SDS011;65250;47.602;19.002;2023-10-08T08:07:12;11.07;;;2.50;;
76417;SDS011;65250;47.602;19.002;2023-10-08T08:09:43;7.60;;;2.65;;
76417;SDS011;65250;47.602;19.002;2023-10-08T08:12:18;5.93;;;2.50;;
76417;SDS011;65250;47.602;19.002;2023-10-08T08:14:48;14.95;;;2.70;;
76417;SDS011;65250;47.602;19.002;2023-10-08T08:17:16;8.00;;;2.13;;
76417;SDS011;65250;47.602;19.002;2023-10-08T08:19:45;8.70;;;2.57;;
76417;SDS011;65250;47.602;19.002;2023-10-08T08:22:20;3.90;;;2.20;;
76417;SDS011;65250;47.602;19.002;2023-10-08T08:24:49;5.60;;;2.30;;
76417;SDS011;65250;47.602;19.002;2023-10-08T08:27:25;4.72;;;2.17;;
76417;SDS011;65250;47.602;19.002;2023-10-08T08:30:01;5.30;;;2.08;;
76417;SDS011;65250;47.602;19.002;2023-10-08T08:32:37;5.73;;;2.43;;
76417;SDS011;65250;47.602;19.002;2023-10-08T08:35:10;6.90;;;2.72;;
76417;SDS011;65250;47.602;19.002;2023-10-08T08:37:38;5.10;;;1.83;;
76417;SDS011;65250;47.602;19.002;2023-10-08T08:40:06;5.30;;;2.20;;
76417;SDS011;65250;47.602;19.002;2023-10-08T08:42:52;6.82;;;2.05;;
76417;SDS011;65250;47.602;19.002;2023-10-08T08:45:21;9.70;;;2.50;;
76417;SDS011;65250;47.602;19.002;2023-10-08T08:47:49;6.50;;;2.53;;
76417;SDS011;65250;47.602;19.002;2023-10-08T08:50:17;8.90;;;1.90;;
76417;SDS011;65250;47.602;19.002;2023-10-08T08:52:44;14.10;;;2.28;;
76417;SDS011;65250;47.602;19.002;2023-10-08T08:55:14;5.50;;;2.03;;
76417;SDS011;65250;47.602;19.002;2023-10-08T08:57:44;8.23;;;2.10;;
76417;SDS011;65250;47.602;19.002;2023-10-08T09:00:14;5.25;;;1.90;;
76417;SDS011;65250;47.602;19.002;2023-10-08T09:02:45;4.85;;;1.70;;
76417;SDS011;65250;47.602;19.002;2023-10-08T09:05:15;10.10;;;2.13;;
76417;SDS011;65250;47.602;19.002;2023-10-08T09:08:00;5.28;;;1.77;;
76417;SDS011;65250;47.602;19.002;2023-10-08T09:10:34;4.83;;;1.90;;
76417;SDS011;65250;47.602;19.002;2023-10-08T09:13:05;4.20;;;1.83;;
76417;SDS011;65250;47.602;19.002;2023-10-08T09:15:35;6.45;;;1.85;;
76417;SDS011;65250;47.602;19.002;2023-10-08T09:18:03;2.70;;;1.63;;
76417;SDS011;65250;47.602;19.002;2023-10-08T09:20:32;5.25;;;2.20;;
76417;SDS011;65250;47.602;19.002;2023-10-08T09:25:42;6.18;;;1.95;;
76417;SDS011;65250;47.602;19.002;2023-10-08T09:28:10;6.18;;;1.75;;
76417;SDS011;65250;47.602;19.002;2023-10-08T09:30:41;10.00;;;1.95;;
76417;SDS011;65250;47.602;19.002;2023-10-08T09:33:12;5.88;;;2.75;;
76417;SDS011;65250;47.602;19.002;2023-10-08T09:35:40;5.87;;;1.87;;
76417;SDS011;65250;47.602;19.002;2023-10-08T09:38:10;4.47;;;1.80;;
76417;SDS011;65250;47.602;19.002;2023-10-08T09:40:40;4.47;;;1.60;;
76417;SDS011;65250;47.602;19.002;2023-10-08T09:43:13;6.00;;;1.98;;
76417;SDS011;65250;47.602;19.002;2023-10-08T09:45:43;4.20;;;1.70;;
76417;SDS011;65250;47.602;19.002;2023-10-08T09:48:16;3.13;;;1.57;;
76417;SDS011;65250;47.602;19.002;2023-10-08T09:50:43;3.05;;;1.70;;
76417;SDS011;65250;47.602;19.002;2023-10-08T09:53:12;5.20;;;2.03;;
76417;SDS011;65250;47.602;19.002;2023-10-08T09:55:58;4.07;;;1.85;;
76417;SDS011;65250;47.602;19.002;2023-10-08T09:58:26;4.43;;;1.60;;
76417;SDS011;65250;47.602;19.002;2023-10-08T10:00:55;4.33;;;1.70;;
76417;SDS011;65250;47.602;19.002;2023-10-08T10:03:27;6.30;;;1.88;;
76417;SDS011;65250;47.602;19.002;2023-10-08T10:05:55;5.28;;;1.92;;
76417;SDS011;65250;47.602;19.002;2023-10-08T10:08:27;4.22;;;1.58;;
76417;SDS011;65250;47.602;19.002;2023-10-08T10:10:59;4.85;;;1.70;;
76417;SDS011;65250;47.602;19.002;2023-10-08T10:13:33;4.20;;;1.47;;
76417;SDS011;65250;47.602;19.002;2023-10-08T10:16:01;3.53;;;1.50;;
76417;SDS011;65250;47.602;19.002;2023-10-08T10:18:29;2.75;;;1.45;;
76417;SDS011;65250;47.602;19.002;2023-10-08T10:21:00;4.10;;;1.23;;
76417;SDS011;65250;47.602;19.002;2023-10-08T10:23:56;4.85;;;1.73;;
76417;SDS011;65250;47.602;19.002;2023-10-08T10:26:25;2.07;;;0.90;;
76417;SDS011;65250;47.602;19.002;2023-10-08T10:31:37;4.07;;;0.65;;
76417;SDS011;65250;47.602;19.002;2023-10-08T10:34:06;0.60;;;0.60;;
76417;SDS011;65250;47.602;19.002;2023-10-08T10:36:35;0.68;;;0.60;;
76417;SDS011;65250;47.602;19.002;2023-10-08T10:39:02;2.53;;;0.70;;
76417;SDS011;65250;47.602;19.002;2023-10-08T10:41:53;1.90;;;0.40;;
76417;SDS011;65250;47.602;19.002;2023-10-08T10:44:24;0.75;;;0.50;;
76417;SDS011;65250;47.602;19.002;2023-10-08T10:46:52;1.33;;;0.60;;
76417;SDS011;65250;47.602;19.002;2023-10-08T10:49:39;1.20;;;0.50;;
76417;SDS011;65250;47.602;19.002;2023-10-08T10:52:15;0.97;;;0.60;;
76417;SDS011;65250;47.602;19.002;2023-10-08T10:55:07;1.58;;;0.60;;
76417;SDS011;65250;47.602;19.002;2023-10-08T10:57:44;2.20;;;0.45;;
76417;SDS011;65250;47.602;19.002;2023-10-08T11:00:25;0.57;;;0.20;;
76417;SDS011;65250;47.602;19.002;2023-10-08T11:02:59;0.40;;;0.25;;
76417;SDS011;65250;47.602;19.002;2023-10-08T11:05:30;0.50;;;0.30;;
76417;SDS011;65250;47.602;19.002;2023-10-08T11:07:59;0.50;;;0.35;;
76417;SDS011;65250;47.602;19.002;2023-10-08T11:10:36;3.60;;;0.40;;
76417;SDS011;65250;47.602;19.002;2023-10-08T11:13:05;0.28;;;0.15;;
76417;SDS011;65250;47.602;19.002;2023-10-08T11:15:42;1.75;;;0.30;;
76417;SDS011;65250;47.602;19.002;2023-10-08T11:18:10;1.70;;;0.37;;
76417;SDS011;65250;47.602;19.002;2023-10-08T11:20:41;0.30;;;0.13;;
76417;SDS011;65250;47.602;19.002;2023-10-08T11:23:31;1.60;;;0.20;;
76417;SDS011;65250;47.602;19.002;2023-10-08T11:26:00;0.20;;;0.10;;
76417;SDS011;65250;47.602;19.002;2023-10-08T11:28:30;1.00;;;0.82;;
76417;SDS011;65250;47.602;19.002;2023-10-08T11:31:10;1.03;;;0.10;;
76417;SDS011;65250;47.602;19.002;2023-10-08T11:33:38;0.22;;;0.22;;
76417;SDS011;65250;47.602;19.002;2023-10-08T11:36:07;1.02;;;0.30;;
76417;SDS011;65250;47.602;19.002;2023-10-08T11:38:45;0.88;;;0.20;;
76417;SDS011;65250;47.602;19.002;2023-10-08T11:41:17;0.30;;;0.20;;
76417;SDS011;65250;47.602;19.002;2023-10-08T11:46:15;0.80;;;0.40;;
76417;SDS011;65250;47.602;19.002;2023-10-08T11:48:45;0.50;;;0.20;;
76417;SDS011;65250;47.602;19.002;2023-10-08T11:51:13;2.53;;;0.40;;
76417;SDS011;65250;47.602;19.002;2023-10-08T11:53:44;1.10;;;0.20;;
76417;SDS011;65250;47.602;19.002;2023-10-08T11:56:11;0.20;;;0.10;;
76417;SDS011;65250;47.602;19.002;2023-10-08T11:58:40;0.20;;;0.20;;
76417;SDS011;65250;47.602;19.002;2023-10-08T12:01:11;0.63;;;0.32;;
76417;SDS011;65250;47.602;19.002;2023-10-08T12:03:42;0.80;;;0.13;;
76417;SDS011;65250;47.602;19.002;2023-10-08T12:06:11;0.28;;;0.10;;
76417;SDS011;65250;47.602;19.002;2023-10-08T12:08:42;0.10;;;0.10;;
76417;SDS011;65250;47.602;19.002;2023-10-08T12:11:12;0.20;;;0.20;;
76417;SDS011;65250;47.602;19.002;2023-10-08T12:13:40;4.38;;;0.20;;
76417;SDS011;65250;47.602;19.002;2023-10-08T12:16:11;0.40;;;0.20;;
76417;SDS011;65250;47.602;19.002;2023-10-08T12:18:45;0.40;;;0.10;;
76417;SDS011;65250;47.602;19.002;2023-10-08T12:21:15;0.37;;;0.20;;
76417;SDS011;65250;47.602;19.002;2023-10-08T12:23:44;3.92;;;0.13;;
76417;SDS011;65250;47.602;19.002;2023-10-08T12:26:13;0.20;;;0.10;;
76417;SDS011;65250;47.602;19.002;2023-10-08T12:28:46;0.55;;;0.13;;
76417;SDS011;65250;47.602;19.002;2023-10-08T12:31:15;0.10;;;0.03;;
76417;SDS011;65250;47.602;19.002;2023-10-08T12:33:43;0.20;;;0.13;;
76417;SDS011;65250;47.602;19.002;2023-10-08T12:36:10;0.45;;;0.10;;
76417;SDS011;65250;47.602;19.002;2023-10-08T12:38:39;1.50;;;0.17;;
76417;SDS011;65250;47.602;19.002;2023-10-08T12:41:11;0.10;;;0.00;;
76417;SDS011;65250;47.602;19.002;2023-10-08T12:43:41;0.20;;;0.10;;
76417;SDS011;65250;47.602;19.002;2023-10-08T12:46:12;0.60;;;0.13;;
76417;SDS011;65250;47.602;19.002;2023-10-08T12:48:45;5.38;;;0.20;;
76417;SDS011;65250;47.602;19.002;2023-10-08T12:51:20;0.68;;;0.10;;
76417;SDS011;65250;47.602;19.002;2023-10-08T12:53:54;0.20;;;0.10;;
76417;SDS011;65250;47.602;19.002;2023-10-08T12:56:48;1.85;;;0.10;;
76417;SDS011;65250;47.602;19.002;2023-10-08T12:59:16;3.20;;;0.10;;
76417;SDS011;65250;47.602;19.002;2023-10-08T13:01:50;0.88;;;0.25;;
76417;SDS011;65250;47.602;19.002;2023-10-08T13:04:18;0.30;;;0.10;;
76417;SDS011;65250;47.602;19.002;2023-10-08T13:06:55;1.80;;;0.15;;
76417;SDS011;65250;47.602;19.002;2023-10-08T13:09:24;0.50;;;0.20;;
76417;SDS011;65250;47.602;19.002;2023-10-08T13:11:52;1.23;;;0.23;;
76417;SDS011;65250;47.602;19.002;2023-10-08T13:14:19;2.28;;;0.30;;
76417;SDS011;65250;47.602;19.002;2023-10-08T13:16:49;0.20;;;0.13;;
76417;SDS011;65250;47.602;19.002;2023-10-08T13:19:20;0.20;;;0.15;;
76417;SDS011;65250;47.602;19.002;2023-10-08T13:21:51;2.85;;;0.50;;
76417;SDS011;65250;47.602;19.002;2023-10-08T13:24:20;3.50;;;0.20;;
76417;SDS011;65250;47.602;19.002;2023-10-08T13:26:51;1.77;;;0.20;;
76417;SDS011;65250;47.602;19.002;2023-10-08T13:29:19;1.38;;;0.17;;
76417;SDS011;65250;47.602;19.002;2023-10-08T13:31:46;0.47;;;0.13;;
76417;SDS011;65250;47.602;19.002;2023-10-08T13:34:14;0.55;;;0.20;;
76417;SDS011;65250;47.602;19.002;2023-10-08T13:36:43;1.93;;;0.07;;
76417;SDS011;65250;47.602;19.002;2023-10-08T13:39:14;2.00;;;0.22;;
76417;SDS011;65250;47.602;19.002;2023-10-08T13:41:47;0.35;;;0.10;;
76417;SDS011;65250;47.602;19.002;2023-10-08T13:44:19;1.30;;;0.20;;
76417;SDS011;65250;47.602;19.002;2023-10-08T13:46:57;0.50;;;0.20;;
76417;SDS011;65250;47.602;19.002;2023-10-08T13:49:26;1.30;;;0.50;;
76417;SDS011;65250;47.602;19.002;2023-10-08T13:51:54;1.13;;;0.30;;
76417;SDS011;65250;47.602;19.002;2023-10-08T13:54:24;0.50;;;0.30;;
76417;SDS011;65250;47.602;19.002;2023-10-08T13:57:01;0.88;;;0.30;;
76417;SDS011;65250;47.602;19.002;2023-10-08T13:59:29;0.50;;;0.50;;
76417;SDS011;65250;47.602;19.002;2023-10-08T14:01:59;2.83;;;0.30;;
76417;SDS011;65250;47.602;19.002;2023-10-08T14:04:29;0.70;;;0.10;;
76417;SDS011;65250;47.602;19.002;2023-10-08T14:07:07;0.68;;;0.30;;
76417;SDS011;65250;47.602;19.002;2023-10-08T14:09:35;1.20;;;0.68;;
76417;SDS011;65250;47.602;19.002;2023-10-08T14:12:05;1.90;;;0.20;;
76417;SDS011;65250;47.602;19.002;2023-10-08T14:14:37;1.83;;;0.30;;
76417;SDS011;65250;47.602;19.002;2023-10-08T14:17:11;2.55;;;0.40;;
76417;SDS011;65250;47.602;19.002;2023-10-08T14:20:04;0.60;;;0.47;;
76417;SDS011;65250;47.602;19.002;2023-10-08T14:22:40;1.27;;;0.45;;
76417;SDS011;65250;47.602;19.002;2023-10-08T14:25:08;0.75;;;0.38;;
76417;SDS011;65250;47.602;19.002;2023-10-08T14:27:44;3.90;;;0.57;;
76417;SDS011;65250;47.602;19.002;2023-10-08T14:30:19;1.98;;;0.40;;
76417;SDS011;65250;47.602;19.002;2023-10-08T14:32:48;4.55;;;0.52;;
76417;SDS011;65250;47.602;19.002;2023-10-08T14:35:16;1.70;;;0.57;;
76417;SDS011;65250;47.602;19.002;2023-10-08T14:38:01;2.17;;;0.90;;
76417;SDS011;65250;47.602;19.002;2023-10-08T14:40:47;1.30;;;0.50;;
76417;SDS011;65250;47.602;19.002;2023-10-08T14:43:33;3.33;;;0.85;;
76417;SDS011;65250;47.602;19.002;2023-10-08T14:46:01;2.70;;;0.30;;
76417;SDS011;65250;47.602;19.002;2023-10-08T14:48:32;1.55;;;0.45;;
76417;SDS011;65250;47.602;19.002;2023-10-08T14:51:02;2.60;;;0.43;;
76417;SDS011;65250;47.602;19.002;2023-10-08T14:53:30;1.10;;;0.40;;
76417;SDS011;65250;47.602;19.002;2023-10-08T14:56:02;2.97;;;0.43;;
76417;SDS011;65250;47.602;19.002;2023-10-08T14:58:33;1.80;;;0.70;;
76417;SDS011;65250;47.602;19.002;2023-10-08T15:01:00;2.38;;;0.60;;
76417;SDS011;65250;47.602;19.002;2023-10-08T15:03:28;0.80;;;0.52;;
76417;SDS011;65250;47.602;19.002;2023-10-08T15:05:56;1.77;;;0.70;;
76417;SDS011;65250;47.602;19.002;2023-10-08T15:08:24;1.67;;;0.43;;
76417;SDS011;65250;47.602;19.002;2023-10-08T15:10:54;0.90;;;0.30;;
76417;SDS011;65250;47.602;19.002;2023-10-08T15:13:21;1.00;;;0.50;;